sensor_id;sensor_type;location;lat;lon;timestamp;pressure;altitude;pressure_sealevel;temperature;humidity
63493;BME280;49638;47.526;10.028;2022-12-07T00:00:36;91500.63;;;-0.25;95.49
63493;BME280;49638;47.526;10.028;2022-12-07T00:03:37;91508.25;;;-0.23;95.23
63493;BME280;49638;47.526;10.028;2022-12-07T00:06:40;91499.47;;;-0.22;95.37
63493;BME280;49638;47.526;10.028;2022-12-07T00:09:40;91472.13;;;-0.39;95.47
63493;BME280;49638;47.526;10.028;2022-12-07T00:12:41;91479.41;;;-0.28;95.50
63493;BME280;49638;47.526;10.028;2022-12-07T00:15:42;91491.75;;;-0.15;95.78
63493;BME280;49638;47.526;10.028;2022-12-07T00:18:43;91480.28;;;-0.21;95.73
63493;BME280;49638;47.526;10.028;2022-12-07T00:21:43;91487.19;;;-0.13;95.69
63493;BME280;49638;47.526;10.028;2022-12-07T00:24:43;91487.06;;;-0.05;95.64
63493;BME280;49638;47.526;10.028;2022-12-07T00:27:44;91482.91;;;0.01;95.58
63493;BME280;49638;47.526;10.028;2022-12-07T00:30:44;91480.19;;;0.09;95.47
63493;BME280;49638;47.526;10.028;2022-12-07T00:33:45;91474.41;;;0.13;95.09
63493;BME280;49638;47.526;10.028;2022-12-07T00:36:46;91472.16;;;0.04;94.70
63493;BME280;49638;47.526;10.028;2022-12-07T00:39:46;91479.44;;;0.15;94.82
63493;BME280;49638;47.526;10.028;2022-12-07T00:42:46;91462.38;;;0.06;94.76
63493;BME280;49638;47.526;10.028;2022-12-07T00:45:47;91456.75;;;0.02;94.96
63493;BME280;49638;47.526;10.028;2022-12-07T00:48:48;91475.25;;;0.14;94.90
63493;BME280;49638;47.526;10.028;2022-12-07T00:51:49;91459.25;;;0.17;94.78
63493;BME280;49638;47.526;10.028;2022-12-07T00:54:49;91466.69;;;0.20;94.83
63493;BME280;49638;47.526;10.028;2022-12-07T00:57:49;91472.72;;;0.20;94.66
63493;BME280;49638;47.526;10.028;2022-12-07T01:00:50;91479.88;;;0.18;94.80
63493;BME280;49638;47.526;10.028;2022-12-07T01:03:50;91466.03;;;0.11;95.01
63493;BME280;49638;47.526;10.028;2022-12-07T01:06:50;91476.84;;;0.15;94.65
63493;BME280;49638;47.526;10.028;2022-12-07T01:09:51;91483.47;;;0.17;94.99
63493;BME280;49638;47.526;10.028;2022-12-07T01:12:51;91475.25;;;0.14;95.08
63493;BME280;49638;47.526;10.028;2022-12-07T01:15:51;91485.94;;;0.26;94.88
63493;BME280;49638;47.526;10.028;2022-12-07T01:18:53;91486.34;;;0.29;94.58
63493;BME280;49638;47.526;10.028;2022-12-07T01:21:53;91492.28;;;0.23;94.38
63493;BME280;49638;47.526;10.028;2022-12-07T01:24:54;91474.84;;;0.17;94.25
63493;BME280;49638;47.526;10.028;2022-12-07T01:27:54;91485.63;;;0.14;94.69
63493;BME280;49638;47.526;10.028;2022-12-07T01:30:59;91497.88;;;0.20;94.55
63493;BME280;49638;47.526;10.028;2022-12-07T01:34:00;91497.50;;;0.23;94.36
63493;BME280;49638;47.526;10.028;2022-12-07T01:37:01;91495.91;;;0.22;94.14
63493;BME280;49638;47.526;10.028;2022-12-07T01:40:02;91495.47;;;0.18;94.45
63493;BME280;49638;47.526;10.028;2022-12-07T01:43:09;91504.75;;;0.28;94.00
63493;BME280;49638;47.526;10.028;2022-12-07T01:46:13;91492.28;;;0.23;93.77
63493;BME280;49638;47.526;10.028;2022-12-07T01:52:25;91498.97;;;0.32;94.27
63493;BME280;49638;47.526;10.028;2022-12-07T01:55:28;91484.94;;;0.27;94.30
63493;BME280;49638;47.526;10.028;2022-12-07T01:58:29;91487.59;;;0.33;94.39
63493;BME280;49638;47.526;10.028;2022-12-07T02:01:30;91483.59;;;0.31;94.32
63493;BME280;49638;47.526;10.028;2022-12-07T02:04:30;91470.13;;;0.27;94.33
63493;BME280;49638;47.526;10.028;2022-12-07T02:07:32;91474.03;;;0.38;93.99
63493;BME280;49638;47.526;10.028;2022-12-07T02:10:34;91474.03;;;0.38;94.26
63493;BME280;49638;47.526;10.028;2022-12-07T02:13:37;91479.41;;;0.36;94.29
63493;BME280;49638;47.526;10.028;2022-12-07T02:16:56;91467.59;;;0.34;94.37
63493;BME280;49638;47.526;10.028;2022-12-07T02:20:21;91475.22;;;0.35;94.64
63493;BME280;49638;47.526;10.028;2022-12-07T02:30:20;91460.84;;;0.39;94.20
63493;BME280;49638;47.526;10.028;2022-12-07T02:33:28;91465.28;;;0.45;94.60
63493;BME280;49638;47.526;10.028;2022-12-07T02:36:39;91467.91;;;0.45;94.69
63493;BME280;49638;47.526;10.028;2022-12-07T02:40:14;91463.28;;;0.47;94.59
63493;BME280;49638;47.526;10.028;2022-12-07T02:43:24;91462.50;;;0.47;94.75
63493;BME280;49638;47.526;10.028;2022-12-07T02:46:30;91453.66;;;0.41;94.59
63493;BME280;49638;47.526;10.028;2022-12-07T02:49:32;91451.66;;;0.43;94.76
63493;BME280;49638;47.526;10.028;2022-12-07T02:52:33;91454.53;;;0.49;94.81
63493;BME280;49638;47.526;10.028;2022-12-07T02:55:39;91454.53;;;0.49;94.72
63493;BME280;49638;47.526;10.028;2022-12-07T03:02:16;91456.50;;;0.46;94.52
63493;BME280;49638;47.526;10.028;2022-12-07T03:05:59;91454.47;;;0.42;94.31
63493;BME280;49638;47.526;10.028;2022-12-07T03:16:24;91463.22;;;0.34;94.30
63493;BME280;49638;47.526;10.028;2022-12-07T03:19:26;91433.03;;;0.12;94.51
63493;BME280;49638;47.526;10.028;2022-12-07T03:22:29;91470.38;;;0.32;94.60
63493;BME280;49638;47.526;10.028;2022-12-07T03:25:33;91467.78;;;0.32;94.62
63493;BME280;49638;47.526;10.028;2022-12-07T03:28:37;91460.41;;;0.36;94.98
63493;BME280;49638;47.526;10.028;2022-12-07T03:31:41;91466.47;;;0.43;94.84
63493;BME280;49638;47.526;10.028;2022-12-07T03:34:57;91464.66;;;0.43;95.00
63493;BME280;49638;47.526;10.028;2022-12-07T03:38:27;91461.31;;;0.50;94.68
63493;BME280;49638;47.526;10.028;2022-12-07T03:41:33;91462.91;;;0.51;94.44
63493;BME280;49638;47.526;10.028;2022-12-07T03:44:35;91452.50;;;0.51;94.22
63493;BME280;49638;47.526;10.028;2022-12-07T03:50:53;91459.94;;;0.54;94.60
63493;BME280;49638;47.526;10.028;2022-12-07T03:54:00;91452.34;;;0.52;94.28
63493;BME280;49638;47.526;10.028;2022-12-07T03:57:02;91449.53;;;0.54;94.42
63493;BME280;49638;47.526;10.028;2022-12-07T04:00:06;91440.53;;;0.50;94.23
63493;BME280;49638;47.526;10.028;2022-12-07T04:03:07;91430.50;;;0.46;94.48
63493;BME280;49638;47.526;10.028;2022-12-07T04:06:07;91445.75;;;0.56;94.65
63493;BME280;49638;47.526;10.028;2022-12-07T04:09:07;91439.72;;;0.49;94.74
63493;BME280;49638;47.526;10.028;2022-12-07T04:12:07;91435.69;;;0.46;95.23
63493;BME280;49638;47.526;10.028;2022-12-07T04:15:08;91454.94;;;0.52;95.41
63493;BME280;49638;47.526;10.028;2022-12-07T04:18:09;91440.13;;;0.53;95.34
63493;BME280;49638;47.526;10.028;2022-12-07T04:21:09;91448.69;;;0.46;95.29
63493;BME280;49638;47.526;10.028;2022-12-07T04:24:11;91452.13;;;0.54;95.70
63493;BME280;49638;47.526;10.028;2022-12-07T04:27:12;91453.16;;;0.53;95.68
63493;BME280;49638;47.526;10.028;2022-12-07T04:30:12;91458.91;;;0.48;95.68
63493;BME280;49638;47.526;10.028;2022-12-07T04:33:14;91459.28;;;0.45;95.43
63493;BME280;49638;47.526;10.028;2022-12-07T04:36:14;91469.75;;;0.52;95.37
63493;BME280;49638;47.526;10.028;2022-12-07T04:39:33;91466.28;;;0.44;95.47
63493;BME280;49638;47.526;10.028;2022-12-07T04:42:34;91469.44;;;0.40;95.69
63493;BME280;49638;47.526;10.028;2022-12-07T04:45:34;91461.22;;;0.36;96.04
63493;BME280;49638;47.526;10.028;2022-12-07T04:48:34;91459.91;;;0.47;95.90
63493;BME280;49638;47.526;10.028;2022-12-07T04:51:35;91466.28;;;0.44;95.88
63493;BME280;49638;47.526;10.028;2022-12-07T04:54:35;91468.91;;;0.44;96.22
63493;BME280;49638;47.526;10.028;2022-12-07T04:57:35;91465.28;;;0.45;96.61
63493;BME280;49638;47.526;10.028;2022-12-07T05:00:35;91463.75;;;0.51;96.63
63493;BME280;49638;47.526;10.028;2022-12-07T05:03:36;91458.34;;;0.53;96.59
63493;BME280;49638;47.526;10.028;2022-12-07T05:06:37;91464.16;;;0.55;96.76
63493;BME280;49638;47.526;10.028;2022-12-07T05:09:37;91458.56;;;0.58;96.97
63493;BME280;49638;47.526;10.028;2022-12-07T05:12:37;91454.38;;;0.57;97.00
63493;BME280;49638;47.526;10.028;2022-12-07T05:15:37;91437.13;;;0.49;96.90
63493;BME280;49638;47.526;10.028;2022-12-07T05:18:38;91440.56;;;0.56;97.28
63493;BME280;49638;47.526;10.028;2022-12-07T05:21:39;91439.50;;;0.51;96.94
63493;BME280;49638;47.526;10.028;2022-12-07T05:24:39;91448.78;;;0.60;96.90
63493;BME280;49638;47.526;10.028;2022-12-07T05:27:39;91441.53;;;0.49;97.08
63493;BME280;49638;47.526;10.028;2022-12-07T05:30:40;91447.31;;;0.51;97.16
63493;BME280;49638;47.526;10.028;2022-12-07T05:33:40;91457.34;;;0.54;97.14
63493;BME280;49638;47.526;10.028;2022-12-07T05:36:40;91447.69;;;0.47;97.64
63493;BME280;49638;47.526;10.028;2022-12-07T05:39:41;91440.47;;;0.43;97.25
63493;BME280;49638;47.526;10.028;2022-12-07T05:42:42;91450.28;;;0.47;97.53
63493;BME280;49638;47.526;10.028;2022-12-07T05:45:43;91459.16;;;0.53;97.63
63493;BME280;49638;47.526;10.028;2022-12-07T05:48:43;91448.69;;;0.46;97.26
63493;BME280;49638;47.526;10.028;2022-12-07T05:51:43;91457.72;;;0.51;98.39
63493;BME280;49638;47.526;10.028;2022-12-07T05:54:43;91460.94;;;0.53;97.53
63493;BME280;49638;47.526;10.028;2022-12-07T05:57:44;91461.31;;;0.50;97.44
63493;BME280;49638;47.526;10.028;2022-12-07T06:01:04;91459.09;;;0.46;97.54
63493;BME280;49638;47.526;10.028;2022-12-07T06:04:04;91455.28;;;0.42;97.36
63493;BME280;49638;47.526;10.028;2022-12-07T06:07:05;91462.31;;;0.49;96.90
63493;BME280;49638;47.526;10.028;2022-12-07T06:10:06;91453.91;;;0.46;96.74
63493;BME280;49638;47.526;10.028;2022-12-07T06:13:06;91471.72;;;0.50;96.89
63493;BME280;49638;47.526;10.028;2022-12-07T06:16:06;91477.91;;;0.49;97.09
63493;BME280;49638;47.526;10.028;2022-12-07T06:19:07;91465.66;;;0.42;97.30
63493;BME280;49638;47.526;10.028;2022-12-07T06:22:08;91469.28;;;0.41;97.50
63493;BME280;49638;47.526;10.028;2022-12-07T06:25:09;91476.88;;;0.43;97.66
63493;BME280;49638;47.526;10.028;2022-12-07T06:28:09;91465.63;;;0.36;97.79
63493;BME280;49638;47.526;10.028;2022-12-07T06:31:10;91479.09;;;0.46;97.60
63493;BME280;49638;47.526;10.028;2022-12-07T06:34:13;91480.09;;;0.45;97.77
63493;BME280;49638;47.526;10.028;2022-12-07T06:37:13;91487.69;;;0.46;97.78
63493;BME280;49638;47.526;10.028;2022-12-07T06:40:14;91479.41;;;0.36;97.78
63493;BME280;49638;47.526;10.028;2022-12-07T06:43:14;91484.44;;;0.38;98.27
63493;BME280;49638;47.526;10.028;2022-12-07T06:46:15;91487.25;;;0.43;98.38
63493;BME280;49638;47.526;10.028;2022-12-07T06:49:15;91477.00;;;0.35;98.09
63493;BME280;49638;47.526;10.028;2022-12-07T06:52:16;91486.84;;;0.39;97.94
63493;BME280;49638;47.526;10.028;2022-12-07T06:55:16;91482.81;;;0.37;98.13
63493;BME280;49638;47.526;10.028;2022-12-07T06:58:17;91487.72;;;0.25;98.38
63493;BME280;49638;47.526;10.028;2022-12-07T07:01:18;91495.75;;;0.30;98.36
63493;BME280;49638;47.526;10.028;2022-12-07T07:04:18;91498.72;;;0.27;98.27
63493;BME280;49638;47.526;10.028;2022-12-07T07:07:18;91504.91;;;0.26;98.74
63493;BME280;49638;47.526;10.028;2022-12-07T07:10:18;91492.28;;;0.23;98.76
63493;BME280;49638;47.526;10.028;2022-12-07T07:13:19;91486.28;;;0.22;98.73
63493;BME280;49638;47.526;10.028;2022-12-07T07:16:19;91500.78;;;0.32;99.13
63493;BME280;49638;47.526;10.028;2022-12-07T07:19:19;91487.78;;;0.32;98.86
63493;BME280;49638;47.526;10.028;2022-12-07T07:22:20;91502.44;;;0.39;98.63
63493;BME280;49638;47.526;10.028;2022-12-07T07:25:20;91486.63;;;0.34;98.85
63493;BME280;49638;47.526;10.028;2022-12-07T07:28:20;91495.88;;;0.43;98.93
63493;BME280;49638;47.526;10.028;2022-12-07T07:31:21;91498.84;;;0.40;99.04
63493;BME280;49638;47.526;10.028;2022-12-07T07:34:21;91506.94;;;0.52;98.56
63493;BME280;49638;47.526;10.028;2022-12-07T07:37:22;91502.53;;;0.53;98.26
63493;BME280;49638;47.526;10.028;2022-12-07T07:40:24;91506.38;;;0.57;98.70
63493;BME280;49638;47.526;10.028;2022-12-07T07:43:24;91497.53;;;0.51;98.43
63493;BME280;49638;47.526;10.028;2022-12-07T07:46:24;91501.97;;;0.57;97.91
63493;BME280;49638;47.526;10.028;2022-12-07T07:49:25;91505.00;;;0.61;98.31
63493;BME280;49638;47.526;10.028;2022-12-07T07:52:25;91497.97;;;0.55;98.27
63493;BME280;49638;47.526;10.028;2022-12-07T07:55:26;91500.75;;;0.53;98.60
63493;BME280;49638;47.526;10.028;2022-12-07T07:58:26;91511.03;;;0.61;98.59
63493;BME280;49638;47.526;10.028;2022-12-07T08:01:26;91503.41;;;0.60;98.08
63493;BME280;49638;47.526;10.028;2022-12-07T08:04:27;91512.06;;;0.67;97.94
63493;BME280;49638;47.526;10.028;2022-12-07T08:07:28;91497.81;;;0.63;98.15
63493;BME280;49638;47.526;10.028;2022-12-07T08:10:28;91497.50;;;0.73;97.71
63493;BME280;49638;47.526;10.028;2022-12-07T08:13:28;91501.09;;;0.72;98.07
63493;BME280;49638;47.526;10.028;2022-12-07T08:16:29;91496.88;;;0.70;97.87
63493;BME280;49638;47.526;10.028;2022-12-07T08:19:29;91505.47;;;0.71;98.13
63493;BME280;49638;47.526;10.028;2022-12-07T08:22:29;91510.31;;;0.74;98.17
63493;BME280;49638;47.526;10.028;2022-12-07T08:25:30;91504.03;;;0.62;98.22
63493;BME280;49638;47.526;10.028;2022-12-07T08:28:31;91508.66;;;0.66;98.47
63493;BME280;49638;47.526;10.028;2022-12-07T08:31:31;91522.34;;;0.75;98.23
63493;BME280;49638;47.526;10.028;2022-12-07T08:34:32;91520.09;;;0.72;98.10
63493;BME280;49638;47.526;10.028;2022-12-07T08:37:32;91509.03;;;0.63;98.44
63493;BME280;49638;47.526;10.028;2022-12-07T08:40:33;91503.41;;;0.60;98.39
63493;BME280;49638;47.526;10.028;2022-12-07T08:43:34;91522.44;;;0.67;98.70
63493;BME280;49638;47.526;10.028;2022-12-07T08:46:37;91516.06;;;0.69;98.42
63493;BME280;49638;47.526;10.028;2022-12-07T08:49:40;91505.47;;;0.71;98.40
63493;BME280;49638;47.526;10.028;2022-12-07T08:52:42;91506.72;;;0.75;98.47
63493;BME280;49638;47.526;10.028;2022-12-07T08:55:45;91512.91;;;0.74;98.53
63493;BME280;49638;47.526;10.028;2022-12-07T08:58:46;91516.13;;;0.76;98.81
63493;BME280;49638;47.526;10.028;2022-12-07T09:01:46;91504.50;;;0.72;98.91
63493;BME280;49638;47.526;10.028;2022-12-07T09:04:46;91512.94;;;0.81;98.87
63493;BME280;49638;47.526;10.028;2022-12-07T09:07:50;91512.81;;;0.89;98.35
63493;BME280;49638;47.526;10.028;2022-12-07T09:10:51;91511.63;;;0.91;98.46
63493;BME280;49638;47.526;10.028;2022-12-07T09:13:52;91499.97;;;0.87;98.68
63493;BME280;49638;47.526;10.028;2022-12-07T09:16:52;91509.25;;;0.97;98.45
63493;BME280;49638;47.526;10.028;2022-12-07T09:19:52;91514.84;;;0.93;98.67
63493;BME280;49638;47.526;10.028;2022-12-07T09:22:53;91516.44;;;0.94;98.36
63493;BME280;49638;47.526;10.028;2022-12-07T09:25:53;91510.22;;;0.89;98.03
63493;BME280;49638;47.526;10.028;2022-12-07T09:28:53;91514.56;;;0.82;97.88
63493;BME280;49638;47.526;10.028;2022-12-07T09:31:53;91517.66;;;0.92;98.27
63493;BME280;49638;47.526;10.028;2022-12-07T09:34:54;91520.41;;;0.90;98.20
63493;BME280;49638;47.526;10.028;2022-12-07T09:37:54;91520.63;;;0.89;98.76
63493;BME280;49638;47.526;10.028;2022-12-07T09:40:55;91516.34;;;0.81;98.43
63493;BME280;49638;47.526;10.028;2022-12-07T09:44:03;91520.38;;;0.84;99.28
63493;BME280;49638;47.526;10.028;2022-12-07T09:47:04;91530.44;;;0.93;99.21
63493;BME280;49638;47.526;10.028;2022-12-07T09:50:10;91524.81;;;0.90;98.68
63493;BME280;49638;47.526;10.028;2022-12-07T09:53:24;91511.78;;;0.83;99.75
63493;BME280;49638;47.526;10.028;2022-12-07T09:56:25;91503.16;;;0.83;99.09
63493;BME280;49638;47.526;10.028;2022-12-07T09:59:26;91509.16;;;0.83;99.34
63493;BME280;49638;47.526;10.028;2022-12-07T10:02:42;91523.69;;;0.99;98.88
63493;BME280;49638;47.526;10.028;2022-12-07T10:05:47;91512.66;;;0.97;98.85
63493;BME280;49638;47.526;10.028;2022-12-07T10:08:49;91499.97;;;0.87;98.78
63493;BME280;49638;47.526;10.028;2022-12-07T10:12:06;91504.47;;;1.00;99.06
63493;BME280;49638;47.526;10.028;2022-12-07T10:15:07;91502.69;;;1.01;98.98
63493;BME280;49638;47.526;10.028;2022-12-07T10:18:40;91487.81;;;0.94;98.72
63493;BME280;49638;47.526;10.028;2022-12-07T10:22:06;91476.00;;;0.92;98.98
63493;BME280;49638;47.526;10.028;2022-12-07T10:25:18;91475.59;;;0.95;99.28
63493;BME280;49638;47.526;10.028;2022-12-07T10:28:19;91469.22;;;0.98;98.85
63493;BME280;49638;47.526;10.028;2022-12-07T10:31:21;91463.63;;;1.01;99.30
63493;BME280;49638;47.526;10.028;2022-12-07T10:34:45;91477.72;;;1.13;99.47
63493;BME280;49638;47.526;10.028;2022-12-07T10:37:45;91466.56;;;1.19;99.04
63493;BME280;49638;47.526;10.028;2022-12-07T10:40:46;91474.38;;;1.26;98.34
63493;BME280;49638;47.526;10.028;2022-12-07T10:43:52;91466.13;;;1.22;98.59
63493;BME280;49638;47.526;10.028;2022-12-07T10:47:03;91454.53;;;1.25;98.46
63493;BME280;49638;47.526;10.028;2022-12-07T10:53:51;91450.97;;;1.32;98.40
63493;BME280;49638;47.526;10.028;2022-12-07T11:09:51;91448.97;;;1.34;97.95
63493;BME280;49638;47.526;10.028;2022-12-07T11:16:55;91447.19;;;1.35;98.37
63493;BME280;49638;47.526;10.028;2022-12-07T11:32:49;91428.53;;;1.31;97.58
63493;BME280;49638;47.526;10.028;2022-12-07T11:35:57;91428.34;;;1.26;97.68
63493;BME280;49638;47.526;10.028;2022-12-07T11:39:10;91420.53;;;1.26;97.78
63493;BME280;49638;47.526;10.028;2022-12-07T11:42:16;91412.88;;;1.18;97.82
63493;BME280;49638;47.526;10.028;2022-12-07T11:45:26;91416.88;;;1.21;97.93
63493;BME280;49638;47.526;10.028;2022-12-07T11:48:41;91407.47;;;1.13;98.68
63493;BME280;49638;47.526;10.028;2022-12-07T11:51:44;91411.66;;;1.14;98.20
63493;BME280;49638;47.526;10.028;2022-12-07T11:54:47;91411.28;;;1.17;98.41
63493;BME280;49638;47.526;10.028;2022-12-07T11:57:53;91399.66;;;1.13;98.40
63493;BME280;49638;47.526;10.028;2022-12-07T12:01:08;91397.63;;;1.15;99.26
63493;BME280;49638;47.526;10.028;2022-12-07T12:04:22;91399.88;;;1.25;98.22
63493;BME280;49638;47.526;10.028;2022-12-07T12:07:26;91394.09;;;1.23;97.76
63493;BME280;49638;47.526;10.028;2022-12-07T12:10:40;91397.47;;;1.23;97.86
63493;BME280;49638;47.526;10.028;2022-12-07T12:17:36;91390.09;;;1.27;98.65
63493;BME280;49638;47.526;10.028;2022-12-07T12:23:49;91373.84;;;1.25;98.77
63493;BME280;49638;47.526;10.028;2022-12-07T12:27:07;91370.84;;;1.21;99.14
63493;BME280;49638;47.526;10.028;2022-12-07T12:30:25;91381.28;;;1.34;98.46
63493;BME280;49638;47.526;10.028;2022-12-07T12:33:30;91380.50;;;1.34;98.40
63493;BME280;49638;47.526;10.028;2022-12-07T12:39:33;91371.69;;;1.35;98.22
63493;BME280;49638;47.526;10.028;2022-12-07T12:42:47;91373.28;;;1.42;98.58
63493;BME280;49638;47.526;10.028;2022-12-07T12:45:48;91368.69;;;1.45;97.90
63493;BME280;49638;47.526;10.028;2022-12-07T12:48:48;91370.13;;;1.47;97.99
63493;BME280;49638;47.526;10.028;2022-12-07T12:51:58;91376.31;;;1.53;97.87
63493;BME280;49638;47.526;10.028;2022-12-07T12:54:59;91363.50;;;1.51;98.08
63493;BME280;49638;47.526;10.028;2022-12-07T13:01:38;91367.31;;;1.55;97.75
63493;BME280;49638;47.526;10.028;2022-12-07T13:04:56;91366.31;;;1.63;97.44
63493;BME280;49638;47.526;10.028;2022-12-07T13:07:59;91362.72;;;1.64;97.17
63493;BME280;49638;47.526;10.028;2022-12-07T13:11:28;91365.34;;;1.64;97.56
63493;BME280;49638;47.526;10.028;2022-12-07T13:14:54;91361.34;;;1.68;97.49
63493;BME280;49638;47.526;10.028;2022-12-07T13:17:56;91361.13;;;1.70;97.00
63493;BME280;49638;47.526;10.028;2022-12-07T13:24:10;91333.47;;;1.55;97.20
63493;BME280;49638;47.526;10.028;2022-12-07T13:27:12;91340.69;;;1.60;96.83
63493;BME280;49638;47.526;10.028;2022-12-07T13:30:19;91349.31;;;1.67;96.49
63493;BME280;49638;47.526;10.028;2022-12-07T13:33:19;91342.69;;;1.64;96.19
63493;BME280;49638;47.526;10.028;2022-12-07T13:36:24;91358.50;;;1.63;96.47
63493;BME280;49638;47.526;10.028;2022-12-07T13:39:26;91349.09;;;1.62;96.32
63493;BME280;49638;47.526;10.028;2022-12-07T13:42:31;91340.47;;;1.55;96.22
63493;BME280;49638;47.526;10.028;2022-12-07T13:45:33;91351.91;;;1.60;96.64
63493;BME280;49638;47.526;10.028;2022-12-07T13:48:51;91340.47;;;1.55;96.38
63493;BME280;49638;47.526;10.028;2022-12-07T13:51:53;91336.66;;;1.51;96.78
63493;BME280;49638;47.526;10.028;2022-12-07T13:58:08;91338.47;;;1.44;96.43
63493;BME280;49638;47.526;10.028;2022-12-07T14:01:09;91340.06;;;1.45;96.50
63493;BME280;49638;47.526;10.028;2022-12-07T14:04:35;91337.44;;;1.45;96.66
63493;BME280;49638;47.526;10.028;2022-12-07T14:07:49;91314.22;;;1.43;96.56
63493;BME280;49638;47.526;10.028;2022-12-07T14:10:57;91334.66;;;1.46;96.89
63493;BME280;49638;47.526;10.028;2022-12-07T14:13:59;91336.06;;;1.49;96.63
63493;BME280;49638;47.526;10.028;2022-12-07T14:17:18;91331.81;;;1.34;96.26
63493;BME280;49638;47.526;10.028;2022-12-07T14:20:39;91319.44;;;1.36;96.45
63493;BME280;49638;47.526;10.028;2022-12-07T14:23:40;91343.28;;;1.53;95.90
63493;BME280;49638;47.526;10.028;2022-12-07T14:26:40;91336.66;;;1.51;95.89
63493;BME280;49638;47.526;10.028;2022-12-07T14:29:41;91329.63;;;1.45;96.13
63493;BME280;49638;47.526;10.028;2022-12-07T14:32:41;91324.66;;;1.43;95.77
63493;BME280;49638;47.526;10.028;2022-12-07T14:35:43;91332.88;;;1.47;96.29
63493;BME280;49638;47.526;10.028;2022-12-07T14:38:43;91327.66;;;1.47;96.19
63493;BME280;49638;47.526;10.028;2022-12-07T14:41:44;91319.22;;;1.45;96.28
63493;BME280;49638;47.526;10.028;2022-12-07T14:44:53;91330.03;;;1.48;95.83
63493;BME280;49638;47.526;10.028;2022-12-07T14:47:53;91328.25;;;1.49;96.32
63493;BME280;49638;47.526;10.028;2022-12-07T14:50:54;91320.41;;;1.42;96.02
63493;BME280;49638;47.526;10.028;2022-12-07T14:53:54;91317.63;;;1.44;96.00
63493;BME280;49638;47.526;10.028;2022-12-07T14:56:55;91309.59;;;1.38;96.00
63493;BME280;49638;47.526;10.028;2022-12-07T14:59:55;91313.22;;;1.37;96.15
63493;BME280;49638;47.526;10.028;2022-12-07T15:02:56;91320.00;;;1.38;96.65
63493;BME280;49638;47.526;10.028;2022-12-07T15:05:58;91323.41;;;1.32;96.25
63493;BME280;49638;47.526;10.028;2022-12-07T15:08:58;91321.22;;;1.36;96.35
63493;BME280;49638;47.526;10.028;2022-12-07T15:11:58;91300.16;;;1.24;96.32
63493;BME280;49638;47.526;10.028;2022-12-07T15:14:59;91317.22;;;1.33;96.20
63493;BME280;49638;47.526;10.028;2022-12-07T15:18:01;91318.97;;;1.13;96.35
63493;BME280;49638;47.526;10.028;2022-12-07T15:21:02;91296.16;;;1.22;96.18
63493;BME280;49638;47.526;10.028;2022-12-07T15:24:02;91320.81;;;1.39;96.55
63493;BME280;49638;47.526;10.028;2022-12-07T15:27:03;91280.91;;;1.12;96.52
63493;BME280;49638;47.526;10.028;2022-12-07T15:30:04;91318.41;;;1.37;96.18
63493;BME280;49638;47.526;10.028;2022-12-07T15:33:04;91278.28;;;1.05;96.51
63493;BME280;49638;47.526;10.028;2022-12-07T15:36:05;91315.16;;;1.22;96.54
63493;BME280;49638;47.526;10.028;2022-12-07T15:39:06;91315.41;;;1.34;96.64
63493;BME280;49638;47.526;10.028;2022-12-07T15:42:06;91284.34;;;1.12;96.68
63493;BME280;49638;47.526;10.028;2022-12-07T15:45:07;91271.91;;;1.08;96.38
63493;BME280;49638;47.526;10.028;2022-12-07T15:48:09;91315.59;;;1.32;97.01
63493;BME280;49638;47.526;10.028;2022-12-07T15:51:09;91282.13;;;1.09;96.67
63493;BME280;49638;47.526;10.028;2022-12-07T15:54:13;91302.78;;;1.24;97.01
63493;BME280;49638;47.526;10.028;2022-12-07T15:57:16;91307.75;;;1.26;96.69
63493;BME280;49638;47.526;10.028;2022-12-07T16:00:16;91233.16;;;0.58;96.93
63493;BME280;49638;47.526;10.028;2022-12-07T16:03:17;91297.94;;;1.14;96.96
63493;BME280;49638;47.526;10.028;2022-12-07T16:06:18;91287.72;;;1.06;97.21
63493;BME280;49638;47.526;10.028;2022-12-07T16:09:19;91304.75;;;1.09;97.27
63493;BME280;49638;47.526;10.028;2022-12-07T16:12:19;91306.75;;;1.13;97.68
63493;BME280;49638;47.526;10.028;2022-12-07T16:15:20;91306.53;;;1.15;98.13
63493;BME280;49638;47.526;10.028;2022-12-07T16:18:20;91253.00;;;0.73;97.87
63493;BME280;49638;47.526;10.028;2022-12-07T16:21:21;91289.53;;;1.06;98.15
63493;BME280;49638;47.526;10.028;2022-12-07T16:24:21;91303.53;;;1.11;98.06
63493;BME280;49638;47.526;10.028;2022-12-07T16:27:22;91301.72;;;1.12;98.02
63493;BME280;49638;47.526;10.028;2022-12-07T16:30:22;91251.00;;;0.68;97.98
63493;BME280;49638;47.526;10.028;2022-12-07T16:33:22;91290.72;;;1.03;98.26
63493;BME280;49638;47.526;10.028;2022-12-07T16:36:23;91270.63;;;0.84;98.22
63493;BME280;49638;47.526;10.028;2022-12-07T16:39:25;91302.75;;;1.11;98.42
63493;BME280;49638;47.526;10.028;2022-12-07T16:42:25;91287.50;;;1.01;98.23
63493;BME280;49638;47.526;10.028;2022-12-07T16:45:26;91280.06;;;0.98;98.56
63493;BME280;49638;47.526;10.028;2022-12-07T16:48:27;91291.91;;;1.07;98.17
63493;BME280;49638;47.526;10.028;2022-12-07T16:51:28;91290.31;;;1.06;98.09
63493;BME280;49638;47.526;10.028;2022-12-07T16:54:28;91286.53;;;1.09;98.21
63493;BME280;49638;47.526;10.028;2022-12-07T16:57:32;91288.13;;;1.10;98.12
63493;BME280;49638;47.526;10.028;2022-12-07T17:00:32;91289.94;;;1.09;98.15
63493;BME280;49638;47.526;10.028;2022-12-07T17:03:33;91283.94;;;1.09;98.45
63493;BME280;49638;47.526;10.028;2022-12-07T17:06:33;91286.53;;;1.09;98.50
63493;BME280;49638;47.526;10.028;2022-12-07T17:09:34;91283.09;;;1.02;98.65
63493;BME280;49638;47.526;10.028;2022-12-07T17:12:35;91266.09;;;0.99;98.56
63493;BME280;49638;47.526;10.028;2022-12-07T17:15:35;91276.28;;;1.01;98.57
63493;BME280;49638;47.526;10.028;2022-12-07T17:18:36;91282.13;;;1.03;98.66
63493;BME280;49638;47.526;10.028;2022-12-07T17:21:36;91281.88;;;0.98;98.71
63493;BME280;49638;47.526;10.028;2022-12-07T17:24:37;91276.28;;;0.94;98.78
63493;BME280;49638;47.526;10.028;2022-12-07T17:27:37;91288.72;;;0.99;99.00